Weather, Runways
& NOTAMs

CYYZ - Toronto-Lester B. Pearson International
CYYZ 201300Z 28007KT 230V340 15SM BKN042 M08/M12 A3049 RMK SC6 SLP336
Suggested Runways: Departures: 23, Arrivals: 24R
CYOW - Ottawa Macdonald-Cartier International
CYOW 201300Z 35006KT 15SM FEW050 M15/M19 A3047 RMK SC1 SC TR SLP331
Suggested Runway: 32
CYTZ - Billy Bishop Toronto City
CYTZ 201300Z AUTO 31011KT 300V360 9SM OVC050 M06/M12 A3051 RMK SLP338
Suggested Runway: 26
CYXU - London International
CYXU 201300Z 26003KT 15SM -SHSN BKN038 M09/M11 A3049 RMK SC7 CVCTV CLD EMBD SLP344
Suggested Runway: 33
CYHM - John C. Munro Hamilton International
CYHM 201300Z 26003KT 20SM FEW025 SCT045 BKN110 BKN240 M09/M12 A3048 RMK CU1SC3AC1CI1 SLP339
Suggested Runway: 30
CYKF - Region of Waterloo International
CYKF 201300Z AUTO 31005KT 9SM SCT043 M10/M15 A3046 RMK ICG SLP336
Suggested Runway: 26
CYAM - Sault Ste. Marie
CYAM 201300Z 00000KT 20SM FEW120 FEW250 M25/M28 A3057 RMK AC1CI2 AC TR SLP374
Suggested Runway: 30
CYTR - Canadian Forces Base Trenton
CYTR 201300Z 34009KT 15SM FEW052 M10/M15 A3049 RMK SC2 SLP333
Suggested Runway: 06
CYOO - Toronto/Oshawa Executive
CYOO 201300Z AUTO 36010KT 9SM SCT034 M10/M14 A3049 RMK SLP335
Suggested Runway: 30

NOTAMs